sensor_id;sensor_type;location;lat;lon;timestamp;P1;durP1;ratioP1;P2;durP2;ratioP2
31730;SDS011;18310;55.586;12.286;2024-03-02T00:02:12;271.90;;;40.93;;
31730;SDS011;18310;55.586;12.286;2024-03-02T00:05:16;292.80;;;39.78;;
31730;SDS011;18310;55.586;12.286;2024-03-02T00:08:22;374.67;;;42.08;;
31730;SDS011;18310;55.586;12.286;2024-03-02T00:11:29;357.20;;;42.22;;
31730;SDS011;18310;55.586;12.286;2024-03-02T00:14:33;301.23;;;40.95;;
31730;SDS011;18310;55.586;12.286;2024-03-02T00:17:37;365.65;;;45.00;;
31730;SDS011;18310;55.586;12.286;2024-03-02T00:20:42;385.10;;;42.83;;
31730;SDS011;18310;55.586;12.286;2024-03-02T00:23:45;350.13;;;41.80;;
31730;SDS011;18310;55.586;12.286;2024-03-02T00:26:50;303.33;;;40.27;;
31730;SDS011;18310;55.586;12.286;2024-03-02T00:29:53;325.35;;;39.33;;
31730;SDS011;18310;55.586;12.286;2024-03-02T00:32:58;341.15;;;40.88;;
31730;SDS011;18310;55.586;12.286;2024-03-02T00:36:02;289.50;;;38.50;;
31730;SDS011;18310;55.586;12.286;2024-03-02T00:39:06;319.08;;;41.78;;
31730;SDS011;18310;55.586;12.286;2024-03-02T00:42:11;277.25;;;40.00;;
31730;SDS011;18310;55.586;12.286;2024-03-02T00:45:15;288.40;;;43.17;;
31730;SDS011;18310;55.586;12.286;2024-03-02T00:51:23;253.80;;;36.92;;
31730;SDS011;18310;55.586;12.286;2024-03-02T00:54:27;270.38;;;39.05;;
31730;SDS011;18310;55.586;12.286;2024-03-02T00:57:33;254.05;;;40.25;;
31730;SDS011;18310;55.586;12.286;2024-03-02T01:00:37;276.15;;;38.33;;
31730;SDS011;18310;55.586;12.286;2024-03-02T01:03:40;307.85;;;41.53;;
31730;SDS011;18310;55.586;12.286;2024-03-02T01:06:44;302.23;;;39.58;;
31730;SDS011;18310;55.586;12.286;2024-03-02T01:09:50;172.50;;;37.13;;
31730;SDS011;18310;55.586;12.286;2024-03-02T01:12:55;254.05;;;41.15;;
31730;SDS011;18310;55.586;12.286;2024-03-02T01:15:59;240.25;;;39.63;;
31730;SDS011;18310;55.586;12.286;2024-03-02T01:19:03;207.35;;;40.78;;
31730;SDS011;18310;55.586;12.286;2024-03-02T01:22:06;216.33;;;41.10;;
31730;SDS011;18310;55.586;12.286;2024-03-02T01:25:10;294.92;;;45.95;;
31730;SDS011;18310;55.586;12.286;2024-03-02T01:28:15;321.37;;;45.90;;
31730;SDS011;18310;55.586;12.286;2024-03-02T01:31:18;190.38;;;39.03;;
31730;SDS011;18310;55.586;12.286;2024-03-02T01:34:21;200.23;;;40.47;;
31730;SDS011;18310;55.586;12.286;2024-03-02T01:37:25;217.73;;;43.73;;
31730;SDS011;18310;55.586;12.286;2024-03-02T01:40:28;243.90;;;44.67;;
31730;SDS011;18310;55.586;12.286;2024-03-02T01:43:33;238.20;;;42.07;;
31730;SDS011;18310;55.586;12.286;2024-03-02T01:46:56;203.35;;;39.85;;
31730;SDS011;18310;55.586;12.286;2024-03-02T01:50:00;239.25;;;41.08;;
31730;SDS011;18310;55.586;12.286;2024-03-02T01:53:04;228.73;;;38.72;;
31730;SDS011;18310;55.586;12.286;2024-03-02T01:56:07;164.70;;;36.33;;
31730;SDS011;18310;55.586;12.286;2024-03-02T01:59:10;170.63;;;36.77;;
31730;SDS011;18310;55.586;12.286;2024-03-02T02:02:16;189.35;;;39.40;;
31730;SDS011;18310;55.586;12.286;2024-03-02T02:05:20;203.65;;;38.40;;
31730;SDS011;18310;55.586;12.286;2024-03-02T02:08:23;211.47;;;41.93;;
31730;SDS011;18310;55.586;12.286;2024-03-02T02:11:26;208.70;;;38.40;;
31730;SDS011;18310;55.586;12.286;2024-03-02T02:14:30;199.40;;;37.75;;
31730;SDS011;18310;55.586;12.286;2024-03-02T02:17:35;185.80;;;35.30;;
31730;SDS011;18310;55.586;12.286;2024-03-02T02:20:38;243.18;;;36.95;;
31730;SDS011;18310;55.586;12.286;2024-03-02T02:23:43;186.73;;;37.43;;
31730;SDS011;18310;55.586;12.286;2024-03-02T02:26:50;171.07;;;35.40;;
31730;SDS011;18310;55.586;12.286;2024-03-02T02:29:53;175.37;;;35.73;;
31730;SDS011;18310;55.586;12.286;2024-03-02T02:36:02;205.38;;;37.85;;
31730;SDS011;18310;55.586;12.286;2024-03-02T02:42:12;90.50;;;35.72;;
31730;SDS011;18310;55.586;12.286;2024-03-02T02:45:16;118.90;;;35.72;;
31730;SDS011;18310;55.586;12.286;2024-03-02T02:48:20;164.15;;;38.60;;
31730;SDS011;18310;55.586;12.286;2024-03-02T02:51:23;152.77;;;37.58;;
31730;SDS011;18310;55.586;12.286;2024-03-02T02:54:28;179.60;;;37.25;;
31730;SDS011;18310;55.586;12.286;2024-03-02T02:57:32;128.98;;;37.85;;
31730;SDS011;18310;55.586;12.286;2024-03-02T03:00:39;119.68;;;38.67;;
31730;SDS011;18310;55.586;12.286;2024-03-02T03:03:43;108.32;;;36.22;;
31730;SDS011;18310;55.586;12.286;2024-03-02T03:06:47;114.18;;;39.17;;
31730;SDS011;18310;55.586;12.286;2024-03-02T03:09:52;72.32;;;35.83;;
31730;SDS011;18310;55.586;12.286;2024-03-02T03:12:56;82.65;;;39.35;;
31730;SDS011;18310;55.586;12.286;2024-03-02T03:15:59;84.70;;;37.72;;
31730;SDS011;18310;55.586;12.286;2024-03-02T03:19:02;90.40;;;38.47;;
31730;SDS011;18310;55.586;12.286;2024-03-02T03:22:07;95.32;;;38.92;;
31730;SDS011;18310;55.586;12.286;2024-03-02T03:25:12;85.50;;;41.60;;
31730;SDS011;18310;55.586;12.286;2024-03-02T03:28:15;85.78;;;37.80;;
31730;SDS011;18310;55.586;12.286;2024-03-02T03:31:18;78.97;;;37.28;;
31730;SDS011;18310;55.586;12.286;2024-03-02T03:34:21;83.50;;;38.27;;
31730;SDS011;18310;55.586;12.286;2024-03-02T03:37:25;78.03;;;34.28;;
31730;SDS011;18310;55.586;12.286;2024-03-02T03:40:36;79.13;;;38.67;;
31730;SDS011;18310;55.586;12.286;2024-03-02T03:43:39;77.57;;;36.72;;
31730;SDS011;18310;55.586;12.286;2024-03-02T03:46:42;84.97;;;40.53;;
31730;SDS011;18310;55.586;12.286;2024-03-02T03:49:46;85.22;;;40.35;;
31730;SDS011;18310;55.586;12.286;2024-03-02T03:52:50;81.50;;;39.33;;
31730;SDS011;18310;55.586;12.286;2024-03-02T03:55:54;80.10;;;37.28;;
31730;SDS011;18310;55.586;12.286;2024-03-02T03:58:58;85.45;;;39.72;;
31730;SDS011;18310;55.586;12.286;2024-03-02T04:02:01;81.37;;;39.57;;
31730;SDS011;18310;55.586;12.286;2024-03-02T04:05:05;91.87;;;41.83;;
31730;SDS011;18310;55.586;12.286;2024-03-02T04:08:10;86.80;;;41.33;;
31730;SDS011;18310;55.586;12.286;2024-03-02T04:11:15;79.40;;;36.60;;
31730;SDS011;18310;55.586;12.286;2024-03-02T04:14:19;86.55;;;39.00;;
31730;SDS011;18310;55.586;12.286;2024-03-02T04:17:22;89.93;;;43.00;;
31730;SDS011;18310;55.586;12.286;2024-03-02T04:20:49;85.43;;;41.63;;
31730;SDS011;18310;55.586;12.286;2024-03-02T04:23:55;88.85;;;40.65;;
31730;SDS011;18310;55.586;12.286;2024-03-02T04:27:00;88.38;;;41.95;;
31730;SDS011;18310;55.586;12.286;2024-03-02T04:30:05;80.55;;;40.08;;
31730;SDS011;18310;55.586;12.286;2024-03-02T04:33:09;87.32;;;42.30;;
31730;SDS011;18310;55.586;12.286;2024-03-02T04:36:14;91.75;;;43.00;;
31730;SDS011;18310;55.586;12.286;2024-03-02T04:39:17;85.22;;;40.30;;
31730;SDS011;18310;55.586;12.286;2024-03-02T04:42:21;86.77;;;40.27;;
31730;SDS011;18310;55.586;12.286;2024-03-02T04:45:24;80.47;;;39.47;;
31730;SDS011;18310;55.586;12.286;2024-03-02T04:48:47;90.38;;;41.58;;
31730;SDS011;18310;55.586;12.286;2024-03-02T04:51:57;89.88;;;42.40;;
31730;SDS011;18310;55.586;12.286;2024-03-02T04:55:00;91.07;;;42.10;;
31730;SDS011;18310;55.586;12.286;2024-03-02T04:58:21;89.82;;;41.08;;
31730;SDS011;18310;55.586;12.286;2024-03-02T05:01:24;95.13;;;40.77;;
31730;SDS011;18310;55.586;12.286;2024-03-02T05:04:30;90.85;;;41.03;;
31730;SDS011;18310;55.586;12.286;2024-03-02T05:07:33;87.75;;;42.13;;
31730;SDS011;18310;55.586;12.286;2024-03-02T05:10:36;92.50;;;44.13;;
31730;SDS011;18310;55.586;12.286;2024-03-02T05:13:40;82.93;;;41.20;;
31730;SDS011;18310;55.586;12.286;2024-03-02T05:16:43;91.40;;;44.03;;
31730;SDS011;18310;55.586;12.286;2024-03-02T05:19:48;91.27;;;42.73;;
31730;SDS011;18310;55.586;12.286;2024-03-02T05:22:52;89.40;;;42.63;;
31730;SDS011;18310;55.586;12.286;2024-03-02T05:25:55;95.37;;;43.43;;
31730;SDS011;18310;55.586;12.286;2024-03-02T05:28:59;96.00;;;43.55;;
31730;SDS011;18310;55.586;12.286;2024-03-02T05:32:02;99.47;;;44.13;;
31730;SDS011;18310;55.586;12.286;2024-03-02T05:38:13;99.57;;;44.28;;
31730;SDS011;18310;55.586;12.286;2024-03-02T05:41:16;110.75;;;47.70;;
31730;SDS011;18310;55.586;12.286;2024-03-02T05:44:20;105.63;;;49.35;;
31730;SDS011;18310;55.586;12.286;2024-03-02T05:50:28;107.75;;;46.75;;
31730;SDS011;18310;55.586;12.286;2024-03-02T05:53:32;113.65;;;50.20;;
31730;SDS011;18310;55.586;12.286;2024-03-02T05:56:35;111.03;;;49.95;;
31730;SDS011;18310;55.586;12.286;2024-03-02T05:59:39;109.28;;;50.97;;
31730;SDS011;18310;55.586;12.286;2024-03-02T06:02:43;104.85;;;47.80;;
31730;SDS011;18310;55.586;12.286;2024-03-02T06:05:48;111.25;;;48.05;;
31730;SDS011;18310;55.586;12.286;2024-03-02T06:08:52;105.82;;;49.97;;
31730;SDS011;18310;55.586;12.286;2024-03-02T06:11:56;124.03;;;49.97;;
31730;SDS011;18310;55.586;12.286;2024-03-02T06:14:59;122.72;;;51.55;;
31730;SDS011;18310;55.586;12.286;2024-03-02T06:18:03;120.78;;;52.50;;
31730;SDS011;18310;55.586;12.286;2024-03-02T06:21:09;111.95;;;49.05;;
31730;SDS011;18310;55.586;12.286;2024-03-02T06:24:13;132.63;;;51.85;;
31730;SDS011;18310;55.586;12.286;2024-03-02T06:27:16;126.60;;;51.15;;
31730;SDS011;18310;55.586;12.286;2024-03-02T06:30:20;115.35;;;49.65;;
31730;SDS011;18310;55.586;12.286;2024-03-02T06:33:24;132.15;;;51.55;;
31730;SDS011;18310;55.586;12.286;2024-03-02T06:36:29;134.93;;;52.13;;
31730;SDS011;18310;55.586;12.286;2024-03-02T06:39:32;124.88;;;49.63;;
31730;SDS011;18310;55.586;12.286;2024-03-02T06:42:36;126.55;;;50.25;;
31730;SDS011;18310;55.586;12.286;2024-03-02T06:45:40;115.50;;;50.35;;
31730;SDS011;18310;55.586;12.286;2024-03-02T06:48:44;112.50;;;51.92;;
31730;SDS011;18310;55.586;12.286;2024-03-02T06:51:50;123.80;;;54.50;;
31730;SDS011;18310;55.586;12.286;2024-03-02T06:54:53;112.05;;;51.15;;
31730;SDS011;18310;55.586;12.286;2024-03-02T06:57:56;110.27;;;50.23;;
31730;SDS011;18310;55.586;12.286;2024-03-02T07:01:00;98.70;;;47.28;;
31730;SDS011;18310;55.586;12.286;2024-03-02T07:04:03;95.63;;;46.67;;
31730;SDS011;18310;55.586;12.286;2024-03-02T07:07:09;105.60;;;48.67;;
31730;SDS011;18310;55.586;12.286;2024-03-02T07:10:13;105.20;;;50.90;;
31730;SDS011;18310;55.586;12.286;2024-03-02T07:13:16;101.53;;;47.00;;
31730;SDS011;18310;55.586;12.286;2024-03-02T07:16:19;106.78;;;47.22;;
31730;SDS011;18310;55.586;12.286;2024-03-02T07:19:30;100.95;;;47.38;;
31730;SDS011;18310;55.586;12.286;2024-03-02T07:22:34;102.80;;;49.25;;
31730;SDS011;18310;55.586;12.286;2024-03-02T07:25:43;91.97;;;48.00;;
31730;SDS011;18310;55.586;12.286;2024-03-02T07:28:50;103.93;;;48.92;;
31730;SDS011;18310;55.586;12.286;2024-03-02T07:31:53;99.00;;;46.95;;
31730;SDS011;18310;55.586;12.286;2024-03-02T07:34:57;100.03;;;47.07;;
31730;SDS011;18310;55.586;12.286;2024-03-02T07:38:02;101.00;;;46.85;;
31730;SDS011;18310;55.586;12.286;2024-03-02T07:41:06;99.38;;;44.50;;
31730;SDS011;18310;55.586;12.286;2024-03-02T07:44:10;91.40;;;46.78;;
31730;SDS011;18310;55.586;12.286;2024-03-02T07:47:16;89.93;;;45.78;;
31730;SDS011;18310;55.586;12.286;2024-03-02T07:50:19;94.93;;;44.95;;
31730;SDS011;18310;55.586;12.286;2024-03-02T07:53:24;80.80;;;42.70;;
31730;SDS011;18310;55.586;12.286;2024-03-02T07:56:28;95.55;;;43.65;;
31730;SDS011;18310;55.586;12.286;2024-03-02T07:59:31;88.80;;;42.83;;
31730;SDS011;18310;55.586;12.286;2024-03-02T08:02:35;77.67;;;38.03;;
31730;SDS011;18310;55.586;12.286;2024-03-02T08:05:38;74.13;;;38.90;;
31730;SDS011;18310;55.586;12.286;2024-03-02T08:08:43;69.40;;;37.92;;
31730;SDS011;18310;55.586;12.286;2024-03-02T08:11:47;69.60;;;38.70;;
31730;SDS011;18310;55.586;12.286;2024-03-02T08:14:51;67.38;;;39.20;;
31730;SDS011;18310;55.586;12.286;2024-03-02T08:17:54;68.97;;;36.40;;
31730;SDS011;18310;55.586;12.286;2024-03-02T08:20:58;64.00;;;38.25;;
31730;SDS011;18310;55.586;12.286;2024-03-02T08:24:03;67.18;;;37.85;;
31730;SDS011;18310;55.586;12.286;2024-03-02T08:27:07;69.07;;;38.83;;
31730;SDS011;18310;55.586;12.286;2024-03-02T08:30:12;69.55;;;37.40;;
31730;SDS011;18310;55.586;12.286;2024-03-02T08:33:16;74.25;;;37.88;;
31730;SDS011;18310;55.586;12.286;2024-03-02T08:36:19;63.00;;;35.25;;
31730;SDS011;18310;55.586;12.286;2024-03-02T08:41:20;67.35;;;35.90;;
31730;SDS011;18310;55.586;12.286;2024-03-02T08:44:24;59.00;;;35.13;;
31730;SDS011;18310;55.586;12.286;2024-03-02T08:47:27;61.67;;;34.17;;
31730;SDS011;18310;55.586;12.286;2024-03-02T08:50:31;62.00;;;34.88;;
31730;SDS011;18310;55.586;12.286;2024-03-02T08:53:34;62.20;;;35.83;;
31730;SDS011;18310;55.586;12.286;2024-03-02T08:56:39;65.47;;;37.88;;
31730;SDS011;18310;55.586;12.286;2024-03-02T08:59:43;60.83;;;34.22;;
31730;SDS011;18310;55.586;12.286;2024-03-02T09:02:46;66.10;;;36.60;;
31730;SDS011;18310;55.586;12.286;2024-03-02T09:05:50;56.20;;;34.42;;
31730;SDS011;18310;55.586;12.286;2024-03-02T09:08:53;63.60;;;33.57;;
31730;SDS011;18310;55.586;12.286;2024-03-02T09:11:59;66.50;;;37.30;;
31730;SDS011;18310;55.586;12.286;2024-03-02T09:15:02;64.70;;;35.35;;
31730;SDS011;18310;55.586;12.286;2024-03-02T09:18:07;63.85;;;34.60;;
31730;SDS011;18310;55.586;12.286;2024-03-02T09:21:11;83.45;;;37.33;;
31730;SDS011;18310;55.586;12.286;2024-03-02T09:24:14;79.97;;;37.70;;
31730;SDS011;18310;55.586;12.286;2024-03-02T09:27:20;83.05;;;38.13;;
31730;SDS011;18310;55.586;12.286;2024-03-02T09:30:43;90.68;;;41.35;;
31730;SDS011;18310;55.586;12.286;2024-03-02T09:33:47;112.80;;;41.05;;
31730;SDS011;18310;55.586;12.286;2024-03-02T09:36:51;114.95;;;39.92;;
31730;SDS011;18310;55.586;12.286;2024-03-02T09:39:54;100.18;;;39.90;;
31730;SDS011;18310;55.586;12.286;2024-03-02T09:42:58;92.70;;;39.53;;
31730;SDS011;18310;55.586;12.286;2024-03-02T09:46:04;107.70;;;40.60;;
31730;SDS011;18310;55.586;12.286;2024-03-02T09:49:08;95.35;;;42.58;;
31730;SDS011;18310;55.586;12.286;2024-03-02T09:52:12;108.90;;;43.83;;
31730;SDS011;18310;55.586;12.286;2024-03-02T09:55:16;114.85;;;43.72;;
31730;SDS011;18310;55.586;12.286;2024-03-02T09:58:21;138.68;;;44.58;;
31730;SDS011;18310;55.586;12.286;2024-03-02T10:01:26;150.00;;;44.10;;
31730;SDS011;18310;55.586;12.286;2024-03-02T10:04:29;112.10;;;43.80;;
31730;SDS011;18310;55.586;12.286;2024-03-02T10:07:34;100.13;;;41.78;;
31730;SDS011;18310;55.586;12.286;2024-03-02T10:10:38;101.47;;;43.83;;
31730;SDS011;18310;55.586;12.286;2024-03-02T10:13:45;88.68;;;38.92;;
31730;SDS011;18310;55.586;12.286;2024-03-02T10:16:50;69.25;;;38.15;;
31730;SDS011;18310;55.586;12.286;2024-03-02T10:19:53;68.93;;;38.78;;
31730;SDS011;18310;55.586;12.286;2024-03-02T10:22:58;73.80;;;38.17;;
31730;SDS011;18310;55.586;12.286;2024-03-02T10:26:16;67.28;;;36.25;;
31730;SDS011;18310;55.586;12.286;2024-03-02T10:29:20;63.08;;;35.85;;
31730;SDS011;18310;55.586;12.286;2024-03-02T10:32:25;58.97;;;34.73;;
31730;SDS011;18310;55.586;12.286;2024-03-02T10:35:29;66.25;;;36.70;;
31730;SDS011;18310;55.586;12.286;2024-03-02T10:38:34;70.53;;;37.83;;
31730;SDS011;18310;55.586;12.286;2024-03-02T10:41:38;60.63;;;36.03;;
31730;SDS011;18310;55.586;12.286;2024-03-02T10:44:42;63.15;;;35.92;;
31730;SDS011;18310;55.586;12.286;2024-03-02T10:50:51;60.55;;;35.30;;
31730;SDS011;18310;55.586;12.286;2024-03-02T10:53:55;66.68;;;37.38;;
31730;SDS011;18310;55.586;12.286;2024-03-02T10:56:58;79.63;;;36.00;;
31730;SDS011;18310;55.586;12.286;2024-03-02T11:00:03;64.30;;;35.78;;
31730;SDS011;18310;55.586;12.286;2024-03-02T11:03:09;79.13;;;35.95;;
31730;SDS011;18310;55.586;12.286;2024-03-02T11:06:15;78.45;;;37.42;;
31730;SDS011;18310;55.586;12.286;2024-03-02T11:09:20;64.80;;;35.53;;
31730;SDS011;18310;55.586;12.286;2024-03-02T11:12:28;63.58;;;35.45;;
31730;SDS011;18310;55.586;12.286;2024-03-02T11:15:34;66.43;;;36.40;;
31730;SDS011;18310;55.586;12.286;2024-03-02T11:18:40;63.78;;;35.33;;
31730;SDS011;18310;55.586;12.286;2024-03-02T11:21:45;75.18;;;37.78;;
31730;SDS011;18310;55.586;12.286;2024-03-02T11:27:59;74.55;;;40.05;;
31730;SDS011;18310;55.586;12.286;2024-03-02T11:31:03;68.85;;;37.63;;
31730;SDS011;18310;55.586;12.286;2024-03-02T11:34:20;73.10;;;37.78;;
31730;SDS011;18310;55.586;12.286;2024-03-02T11:37:32;70.93;;;37.13;;
31730;SDS011;18310;55.586;12.286;2024-03-02T11:40:38;78.03;;;38.97;;
31730;SDS011;18310;55.586;12.286;2024-03-02T11:43:42;73.38;;;39.08;;
31730;SDS011;18310;55.586;12.286;2024-03-02T11:46:51;71.28;;;36.38;;
31730;SDS011;18310;55.586;12.286;2024-03-02T11:49:57;77.80;;;37.88;;
31730;SDS011;18310;55.586;12.286;2024-03-02T11:53:01;73.68;;;38.10;;
31730;SDS011;18310;55.586;12.286;2024-03-02T11:56:09;66.25;;;36.28;;
31730;SDS011;18310;55.586;12.286;2024-03-02T11:59:15;73.07;;;36.33;;
31730;SDS011;18310;55.586;12.286;2024-03-02T12:02:19;65.68;;;35.55;;
31730;SDS011;18310;55.586;12.286;2024-03-02T12:05:24;61.65;;;35.17;;
31730;SDS011;18310;55.586;12.286;2024-03-02T12:08:30;73.28;;;36.13;;
31730;SDS011;18310;55.586;12.286;2024-03-02T12:14:38;68.38;;;35.08;;
31730;SDS011;18310;55.586;12.286;2024-03-02T12:17:41;75.40;;;36.63;;
31730;SDS011;18310;55.586;12.286;2024-03-02T12:20:46;67.05;;;35.80;;
31730;SDS011;18310;55.586;12.286;2024-03-02T12:23:52;69.88;;;32.67;;
31730;SDS011;18310;55.586;12.286;2024-03-02T12:26:56;69.85;;;35.88;;
31730;SDS011;18310;55.586;12.286;2024-03-02T12:29:59;69.00;;;35.85;;
31730;SDS011;18310;55.586;12.286;2024-03-02T12:33:03;68.73;;;35.20;;
31730;SDS011;18310;55.586;12.286;2024-03-02T12:36:10;71.60;;;35.80;;
31730;SDS011;18310;55.586;12.286;2024-03-02T12:39:14;64.50;;;35.80;;
31730;SDS011;18310;55.586;12.286;2024-03-02T12:42:18;66.72;;;35.50;;
31730;SDS011;18310;55.586;12.286;2024-03-02T12:45:21;64.43;;;35.08;;
31730;SDS011;18310;55.586;12.286;2024-03-02T12:48:27;75.75;;;36.22;;
31730;SDS011;18310;55.586;12.286;2024-03-02T12:51:32;66.80;;;34.03;;
31730;SDS011;18310;55.586;12.286;2024-03-02T12:54:36;79.85;;;34.83;;
31730;SDS011;18310;55.586;12.286;2024-03-02T12:58:02;72.75;;;35.92;;
31730;SDS011;18310;55.586;12.286;2024-03-02T13:01:06;63.17;;;33.53;;
31730;SDS011;18310;55.586;12.286;2024-03-02T13:04:11;64.47;;;33.80;;
31730;SDS011;18310;55.586;12.286;2024-03-02T13:07:14;72.27;;;33.80;;
31730;SDS011;18310;55.586;12.286;2024-03-02T13:10:18;73.97;;;36.20;;
31730;SDS011;18310;55.586;12.286;2024-03-02T13:13:23;76.60;;;38.83;;
31730;SDS011;18310;55.586;12.286;2024-03-02T13:16:26;79.07;;;37.50;;
31730;SDS011;18310;55.586;12.286;2024-03-02T13:19:43;80.28;;;35.05;;
31730;SDS011;18310;55.586;12.286;2024-03-02T13:22:53;93.30;;;36.63;;
31730;SDS011;18310;55.586;12.286;2024-03-02T13:25:56;93.85;;;39.08;;
31730;SDS011;18310;55.586;12.286;2024-03-02T13:32:05;93.68;;;39.03;;
31730;SDS011;18310;55.586;12.286;2024-03-02T13:35:09;100.93;;;38.53;;
31730;SDS011;18310;55.586;12.286;2024-03-02T13:38:13;95.63;;;39.50;;
31730;SDS011;18310;55.586;12.286;2024-03-02T13:41:17;92.65;;;37.35;;
31730;SDS011;18310;55.586;12.286;2024-03-02T13:44:21;119.53;;;40.13;;
31730;SDS011;18310;55.586;12.286;2024-03-02T13:47:25;115.05;;;38.95;;
31730;SDS011;18310;55.586;12.286;2024-03-02T13:50:29;102.05;;;37.90;;
31730;SDS011;18310;55.586;12.286;2024-03-02T13:53:32;127.73;;;36.00;;
31730;SDS011;18310;55.586;12.286;2024-03-02T13:56:37;194.70;;;39.95;;
31730;SDS011;18310;55.586;12.286;2024-03-02T13:59:44;140.75;;;39.25;;
31730;SDS011;18310;55.586;12.286;2024-03-02T14:02:48;176.00;;;38.60;;
31730;SDS011;18310;55.586;12.286;2024-03-02T14:05:52;163.13;;;37.10;;
31730;SDS011;18310;55.586;12.286;2024-03-02T14:08:57;122.05;;;38.22;;
31730;SDS011;18310;55.586;12.286;2024-03-02T14:12:01;138.88;;;38.47;;
31730;SDS011;18310;55.586;12.286;2024-03-02T14:15:07;149.07;;;39.92;;
31730;SDS011;18310;55.586;12.286;2024-03-02T14:18:12;181.20;;;39.88;;
31730;SDS011;18310;55.586;12.286;2024-03-02T14:21:15;163.50;;;38.92;;
31730;SDS011;18310;55.586;12.286;2024-03-02T14:24:18;178.70;;;40.20;;
31730;SDS011;18310;55.586;12.286;2024-03-02T14:27:26;153.93;;;40.80;;
31730;SDS011;18310;55.586;12.286;2024-03-02T14:30:50;140.20;;;38.28;;
31730;SDS011;18310;55.586;12.286;2024-03-02T14:33:54;129.77;;;37.55;;
31730;SDS011;18310;55.586;12.286;2024-03-02T14:36:58;144.27;;;38.30;;
31730;SDS011;18310;55.586;12.286;2024-03-02T14:40:02;174.68;;;38.75;;
31730;SDS011;18310;55.586;12.286;2024-03-02T14:43:08;186.43;;;39.15;;
31730;SDS011;18310;55.586;12.286;2024-03-02T14:46:13;229.63;;;39.78;;
31730;SDS011;18310;55.586;12.286;2024-03-02T14:49:16;153.43;;;37.25;;
31730;SDS011;18310;55.586;12.286;2024-03-02T14:52:20;232.40;;;39.35;;
31730;SDS011;18310;55.586;12.286;2024-03-02T14:55:23;184.07;;;38.63;;
31730;SDS011;18310;55.586;12.286;2024-03-02T14:58:27;171.95;;;37.60;;
31730;SDS011;18310;55.586;12.286;2024-03-02T15:01:32;240.97;;;40.10;;
31730;SDS011;18310;55.586;12.286;2024-03-02T15:04:35;225.98;;;39.05;;
31730;SDS011;18310;55.586;12.286;2024-03-02T15:07:39;209.47;;;40.10;;
31730;SDS011;18310;55.586;12.286;2024-03-02T15:10:42;217.65;;;36.65;;
31730;SDS011;18310;55.586;12.286;2024-03-02T15:13:46;220.10;;;39.80;;
31730;SDS011;18310;55.586;12.286;2024-03-02T15:16:51;190.23;;;38.70;;
31730;SDS011;18310;55.586;12.286;2024-03-02T15:19:55;271.15;;;40.47;;
31730;SDS011;18310;55.586;12.286;2024-03-02T15:22:58;209.30;;;37.10;;
31730;SDS011;18310;55.586;12.286;2024-03-02T15:26:01;145.47;;;34.33;;
31730;SDS011;18310;55.586;12.286;2024-03-02T15:29:05;158.27;;;35.95;;
31730;SDS011;18310;55.586;12.286;2024-03-02T15:32:11;155.25;;;35.95;;
31730;SDS011;18310;55.586;12.286;2024-03-02T15:35:14;204.38;;;36.35;;
31730;SDS011;18310;55.586;12.286;2024-03-02T15:38:18;193.23;;;37.08;;
31730;SDS011;18310;55.586;12.286;2024-03-02T15:41:33;192.10;;;38.88;;
31730;SDS011;18310;55.586;12.286;2024-03-02T15:44:37;221.30;;;38.00;;
31730;SDS011;18310;55.586;12.286;2024-03-02T15:47:45;228.00;;;39.70;;
31730;SDS011;18310;55.586;12.286;2024-03-02T15:50:48;245.52;;;43.00;;
31730;SDS011;18310;55.586;12.286;2024-03-02T15:53:52;216.38;;;38.67;;
31730;SDS011;18310;55.586;12.286;2024-03-02T15:56:56;226.02;;;40.28;;
31730;SDS011;18310;55.586;12.286;2024-03-02T15:59:59;210.15;;;39.67;;
31730;SDS011;18310;55.586;12.286;2024-03-02T16:03:04;240.55;;;41.55;;
31730;SDS011;18310;55.586;12.286;2024-03-02T16:06:08;236.90;;;41.63;;
31730;SDS011;18310;55.586;12.286;2024-03-02T16:09:12;195.52;;;37.33;;
31730;SDS011;18310;55.586;12.286;2024-03-02T16:12:15;206.87;;;39.73;;
31730;SDS011;18310;55.586;12.286;2024-03-02T16:15:19;175.83;;;40.27;;
31730;SDS011;18310;55.586;12.286;2024-03-02T16:18:24;158.20;;;40.72;;
31730;SDS011;18310;55.586;12.286;2024-03-02T16:21:28;194.13;;;41.65;;
31730;SDS011;18310;55.586;12.286;2024-03-02T16:24:31;202.50;;;40.80;;
31730;SDS011;18310;55.586;12.286;2024-03-02T16:27:34;199.17;;;41.80;;
31730;SDS011;18310;55.586;12.286;2024-03-02T16:30:38;191.37;;;42.60;;
31730;SDS011;18310;55.586;12.286;2024-03-02T16:33:43;194.93;;;42.60;;
31730;SDS011;18310;55.586;12.286;2024-03-02T16:36:46;245.70;;;43.83;;
31730;SDS011;18310;55.586;12.286;2024-03-02T16:39:51;213.88;;;43.97;;
31730;SDS011;18310;55.586;12.286;2024-03-02T16:42:55;245.88;;;43.72;;
31730;SDS011;18310;55.586;12.286;2024-03-02T16:45:58;267.67;;;44.53;;
31730;SDS011;18310;55.586;12.286;2024-03-02T16:49:03;311.60;;;46.90;;
31730;SDS011;18310;55.586;12.286;2024-03-02T16:52:07;225.05;;;43.97;;
31730;SDS011;18310;55.586;12.286;2024-03-02T16:55:11;288.67;;;46.72;;
31730;SDS011;18310;55.586;12.286;2024-03-02T16:58:15;250.68;;;45.55;;
31730;SDS011;18310;55.586;12.286;2024-03-02T17:01:20;308.02;;;49.60;;
31730;SDS011;18310;55.586;12.286;2024-03-02T17:04:25;324.23;;;51.25;;
31730;SDS011;18310;55.586;12.286;2024-03-02T17:07:29;213.75;;;45.85;;
31730;SDS011;18310;55.586;12.286;2024-03-02T17:10:33;260.13;;;45.17;;
31730;SDS011;18310;55.586;12.286;2024-03-02T17:13:37;248.53;;;47.80;;
31730;SDS011;18310;55.586;12.286;2024-03-02T17:16:40;194.53;;;44.17;;
31730;SDS011;18310;55.586;12.286;2024-03-02T17:21:34;222.63;;;47.40;;
31730;SDS011;18310;55.586;12.286;2024-03-02T17:24:38;271.77;;;47.60;;
31730;SDS011;18310;55.586;12.286;2024-03-02T17:27:42;233.90;;;45.88;;
31730;SDS011;18310;55.586;12.286;2024-03-02T17:30:45;192.57;;;43.38;;
31730;SDS011;18310;55.586;12.286;2024-03-02T17:33:49;192.90;;;45.63;;
31730;SDS011;18310;55.586;12.286;2024-03-02T17:36:54;217.25;;;44.63;;
31730;SDS011;18310;55.586;12.286;2024-03-02T17:39:58;138.10;;;40.50;;
31730;SDS011;18310;55.586;12.286;2024-03-02T17:43:02;160.18;;;43.63;;
31730;SDS011;18310;55.586;12.286;2024-03-02T17:46:05;215.25;;;42.83;;
31730;SDS011;18310;55.586;12.286;2024-03-02T17:49:09;189.43;;;42.30;;
31730;SDS011;18310;55.586;12.286;2024-03-02T17:52:14;158.80;;;42.25;;
31730;SDS011;18310;55.586;12.286;2024-03-02T17:55:17;191.10;;;43.38;;
31730;SDS011;18310;55.586;12.286;2024-03-02T17:58:21;134.40;;;40.67;;
31730;SDS011;18310;55.586;12.286;2024-03-02T18:01:24;201.65;;;43.67;;
31730;SDS011;18310;55.586;12.286;2024-03-02T18:04:28;163.90;;;42.00;;
31730;SDS011;18310;55.586;12.286;2024-03-02T18:07:32;166.77;;;42.30;;